Lahij, Yemen
Current Conditions -  °F | °C
As of 11:00 AM on Friday 31 Oct 2014 (Local Time) from OYAA Reporting Station
Clear Clear  
Wind Chill: 88°   Ceiling: Unl
Heat Index: 96°   Visibility: 6mi
Dew Point: 73°   Wind: 12mph
Humidity: 62%   Direction: 110°ESE
Pressure: 29.88"   Gusts: NA
Location:  13.06°N, 44.88°E
Report Text: OYAA 310800Z 11010KT CAVOK 31/23 Q1012 NOSIG
Loading
Personal Weather Stations






























Interactive Weather Map
Tropical Storm Tracking
New forecast layout! Learn more

10-Day Weather Forecast

Advertisements
Track Severe Weather on mobile